Time;durP1;ratioP1;P1;durP2;ratioP2;P2;SDS_P1;SDS_P2;PMS_P1;PMS_P2;Temp;Humidity;BMP_temperature;BMP_pressure;BME280_temperature;BME280_humidity;BME280_pressure;Samples;Min_cycle;Max_cycle;Signal;HPM_P1;HPM_P2
2022/10/17 00:00:23;;;;;;;1.75;1.05;;;11.50;99.90;;;;;;4994072;28;20046;-85
2022/10/17 00:02:48;;;;;;;1.17;1.00;;;10.90;99.90;;;;;;4975878;28;20052;-88
2022/10/17 00:05:14;;;;;;;1.52;0.80;;;10.70;99.90;;;;;;4976023;28;20491;-88
2022/10/17 00:07:40;;;;;;;1.85;0.68;;;10.70;99.90;;;;;;4992902;28;20082;-86
2022/10/17 00:10:06;;;;;;;1.65;0.70;;;10.90;99.90;;;;;;4995980;28;20050;-87
2022/10/17 00:12:32;;;;;;;1.40;0.70;;;10.70;99.90;;;;;;4996011;28;20376;-85
2022/10/17 00:14:58;;;;;;;2.80;1.10;;;10.60;99.90;;;;;;4976145;28;20049;-90
2022/10/17 00:17:23;;;;;;;0.65;0.65;;;10.70;99.90;;;;;;4980482;28;20074;-88
2022/10/17 00:19:49;;;;;;;3.45;0.70;;;10.60;99.90;;;;;;4993473;28;20160;-85
2022/10/17 00:22:15;;;;;;;1.50;0.82;;;10.60;99.90;;;;;;4993106;28;20042;-91
2022/10/17 00:24:41;;;;;;;1.75;0.65;;;10.50;99.90;;;;;;4993182;28;20475;-89
2022/10/17 00:27:07;;;;;;;1.00;0.52;;;10.70;99.90;;;;;;4993052;28;20402;-89
2022/10/17 00:29:32;;;;;;;0.63;0.50;;;10.70;99.90;;;;;;4993664;28;20119;-89
2022/10/17 00:31:58;;;;;;;2.10;0.82;;;10.70;99.90;;;;;;4993173;28;20081;-86
2022/10/17 00:34:24;;;;;;;2.03;0.60;;;11.20;99.90;;;;;;4992909;28;20447;-85
2022/10/17 00:36:50;;;;;;;0.80;0.70;;;10.70;99.90;;;;;;4975285;28;20058;-88
2022/10/17 00:39:16;;;;;;;1.92;0.60;;;10.70;99.90;;;;;;4993443;28;20391;-90
2022/10/17 00:41:42;;;;;;;4.15;0.70;;;10.70;99.90;;;;;;4992754;28;20045;-85
2022/10/17 00:44:29;;;;;;;1.13;0.60;;;11.40;99.90;;;;;;4976265;28;20069;-85
2022/10/17 00:47:01;;;;;;;2.05;0.57;;;10.80;99.90;;;;;;4992953;28;20054;-86
2022/10/17 00:49:29;;;;;;;1.40;0.40;;;10.80;99.90;;;;;;4976872;28;20390;-86
2022/10/17 00:52:00;;;;;;;1.33;0.52;;;11.40;99.90;;;;;;4996912;28;20120;-85
2022/10/17 00:54:34;;;;;;;2.45;0.60;;;10.90;99.90;;;;;;4993322;28;20069;-86
2022/10/17 00:57:00;;;;;;;1.17;0.60;;;11.00;99.90;;;;;;4992639;28;20139;-87
2022/10/17 00:59:27;;;;;;;3.42;0.47;;;11.40;99.90;;;;;;4976130;28;20026;-89
2022/10/17 01:01:59;;;;;;;1.52;0.50;;;11.30;99.90;;;;;;5000464;28;20046;-88
2022/10/17 01:04:24;;;;;;;1.75;0.70;;;11.80;99.90;;;;;;4994014;28;20030;-88
2022/10/17 01:06:50;;;;;;;2.83;0.70;;;11.20;99.90;;;;;;4984545;28;20064;-86
2022/10/17 01:09:16;;;;;;;1.08;0.60;;;11.00;99.90;;;;;;4979518;28;20046;-89
2022/10/17 01:12:08;;;;;;;3.47;0.57;;;11.00;99.90;;;;;;4995923;28;20042;-88
2022/10/17 01:14:51;;;;;;;1.83;0.60;;;11.00;99.90;;;;;;4979237;28;20050;-91
2022/10/17 01:17:28;;;;;;;1.38;0.60;;;11.10;99.90;;;;;;5003322;28;20149;-85
2022/10/17 01:20:15;;;;;;;0.98;0.50;;;11.00;99.90;;;;;;4996249;28;20057;-85
2022/10/17 01:22:48;;;;;;;1.08;0.70;;;11.00;99.90;;;;;;4995907;28;20042;-86
2022/10/17 01:25:50;;;;;;;3.90;0.70;;;11.10;99.90;;;;;;4978142;28;20050;-85
2022/10/17 01:29:05;;;;;;;1.27;0.77;;;11.10;99.90;;;;;;4995880;28;20117;-88
2022/10/17 01:31:47;;;;;;;2.45;0.80;;;11.10;99.90;;;;;;4936361;29;20044;-88
2022/10/17 01:34:31;;;;;;;1.60;0.68;;;11.10;99.90;;;;;;4921706;29;20058;-87
2022/10/17 01:37:31;;;;;;;2.63;1.30;;;11.10;99.90;;;;;;4927573;29;20063;-84
2022/10/17 01:40:13;;;;;;;3.42;1.10;;;11.10;99.90;;;;;;4946884;29;20086;-85
2022/10/17 01:42:56;;;;;;;3.65;1.48;;;11.20;99.90;;;;;;4927459;29;20135;-88
2022/10/17 01:45:45;;;;;;;2.40;1.30;;;11.20;99.90;;;;;;4921317;29;20126;-85
2022/10/17 01:48:17;;;;;;;3.35;1.45;;;11.20;99.90;;;;;;4923740;29;20118;-85
2022/10/17 01:50:51;;;;;;;3.33;1.85;;;11.20;99.90;;;;;;4925424;29;20044;-91
2022/10/17 01:53:26;;;;;;;3.90;2.55;;;11.20;99.90;;;;;;4919328;29;20063;-88
2022/10/17 01:55:54;;;;;;;4.22;1.98;;;11.30;99.90;;;;;;4935392;29;20081;-91
2022/10/17 01:58:26;;;;;;;4.68;1.80;;;11.30;99.90;;;;;;4919866;29;20055;-85
2022/10/17 02:00:55;;;;;;;2.20;1.45;;;11.30;99.90;;;;;;4935307;28;20571;-85
2022/10/17 02:03:22;;;;;;;3.30;1.63;;;11.80;99.90;;;;;;4977570;28;20057;-84
2022/10/17 02:05:48;;;;;;;1.80;1.10;;;11.40;99.90;;;;;;4977755;28;20538;-86
2022/10/17 02:08:24;;;;;;;1.50;0.90;;;11.40;99.90;;;;;;4977363;28;20054;-85
2022/10/17 02:10:54;;;;;;;1.50;0.90;;;11.40;99.90;;;;;;4994590;28;20065;-86
2022/10/17 02:13:38;;;;;;;1.25;0.93;;;11.40;99.90;;;;;;4994677;28;20064;-85
2022/10/17 02:16:18;;;;;;;3.50;1.15;;;11.50;99.90;;;;;;4994774;28;20050;-84
2022/10/17 02:19:11;;;;;;;2.58;1.30;;;11.50;99.90;;;;;;4995090;28;20049;-86
2022/10/17 02:22:11;;;;;;;1.42;0.80;;;11.60;99.90;;;;;;5002471;28;20046;-85
2022/10/17 02:25:08;;;;;;;2.53;0.90;;;11.60;99.90;;;;;;4994785;28;20042;-85
2022/10/17 02:27:49;;;;;;;3.03;0.90;;;11.60;99.90;;;;;;4984737;28;20104;-85
2022/10/17 02:30:46;;;;;;;2.03;0.68;;;11.60;99.90;;;;;;4994376;28;20042;-84
2022/10/17 02:33:26;;;;;;;1.77;0.90;;;11.60;99.90;;;;;;4938033;29;20055;-85
2022/10/17 02:35:56;;;;;;;3.95;1.20;;;11.60;99.90;;;;;;4954427;28;20083;-85
2022/10/17 02:38:24;;;;;;;1.83;0.90;;;12.50;99.90;;;;;;4951465;28;20061;-87
2022/10/17 02:40:51;;;;;;;1.77;0.90;;;11.60;99.90;;;;;;4958173;28;20825;-84
2022/10/17 02:43:18;;;;;;;2.05;0.73;;;11.60;99.90;;;;;;4958814;28;20086;-84
2022/10/17 02:45:45;;;;;;;1.08;0.85;;;12.20;99.90;;;;;;4956066;29;20115;-85
2022/10/17 02:48:34;;;;;;;1.45;0.70;;;12.00;99.90;;;;;;4963479;28;20043;-86
2022/10/17 02:51:05;;;;;;;2.03;0.68;;;11.60;99.90;;;;;;4957249;28;20210;-84
2022/10/17 02:53:37;;;;;;;1.08;0.70;;;11.50;99.90;;;;;;4940330;28;20130;-85
2022/10/17 03:03:29;;;;;;;1.58;0.90;;;10.80;99.90;;;;;;4953726;28;20046;-85
2022/10/17 03:05:55;;;;;;;1.38;0.70;;;12.30;99.90;;;;;;4937730;29;20035;-85
2022/10/17 03:08:22;;;;;;;1.35;0.80;;;11.50;99.90;;;;;;4953493;28;20610;-85
2022/10/17 03:10:48;;;;;;;1.23;0.73;;;11.50;99.90;;;;;;4983272;28;20050;-86
2022/10/17 03:13:14;;;;;;;0.75;0.52;;;11.50;99.90;;;;;;4993906;28;20053;-84
2022/10/17 03:15:40;;;;;;;1.17;0.70;;;11.70;99.90;;;;;;4993809;28;20119;-88
2022/10/17 03:18:06;;;;;;;3.80;0.80;;;11.50;99.90;;;;;;5003597;28;20509;-84
2022/10/17 03:20:31;;;;;;;1.85;0.73;;;11.80;99.90;;;;;;4979367;28;20046;-85
2022/10/17 03:22:57;;;;;;;1.38;0.70;;;11.70;99.90;;;;;;4961178;28;20053;-86
2022/10/17 03:25:23;;;;;;;2.33;0.75;;;12.00;99.90;;;;;;4994029;28;20038;-88
2022/10/17 03:27:48;;;;;;;1.42;0.65;;;11.70;99.90;;;;;;4999294;28;20041;-86
2022/10/17 03:30:14;;;;;;;1.38;0.70;;;12.00;99.90;;;;;;4981910;28;20126;-87
2022/10/17 03:32:40;;;;;;;1.45;0.80;;;11.50;99.90;;;;;;4976464;28;20364;-85
2022/10/17 03:35:06;;;;;;;1.17;0.70;;;11.60;99.90;;;;;;4976753;28;20049;-85
2022/10/17 03:37:32;;;;;;;1.67;0.98;;;11.60;99.90;;;;;;4960303;28;20390;-84
2022/10/17 03:39:57;;;;;;;1.67;0.90;;;12.10;99.90;;;;;;5001982;28;20042;-86
2022/10/17 03:42:23;;;;;;;2.55;0.80;;;12.10;99.90;;;;;;4993922;28;20045;-85
2022/10/17 03:44:49;;;;;;;3.75;1.00;;;12.30;99.90;;;;;;4978220;28;20145;-85
2022/10/17 03:47:14;;;;;;;2.35;1.00;;;11.60;99.90;;;;;;4993657;28;20073;-85
2022/10/17 03:49:40;;;;;;;2.10;1.30;;;11.60;99.90;;;;;;4994218;28;20035;-85
2022/10/17 03:52:09;;;;;;;2.33;0.90;;;11.60;99.90;;;;;;4996284;28;20041;-85
2022/10/17 03:54:35;;;;;;;1.38;0.80;;;11.70;99.90;;;;;;4998117;28;20042;-85
2022/10/17 03:57:00;;;;;;;3.42;1.00;;;11.70;99.90;;;;;;4964971;28;20034;-85
2022/10/17 03:59:26;;;;;;;1.40;1.00;;;12.20;99.90;;;;;;4981526;28;20596;-85
2022/10/17 04:01:52;;;;;;;1.20;0.80;;;11.70;99.90;;;;;;4980657;28;20046;-85
2022/10/17 04:04:18;;;;;;;0.82;0.80;;;11.70;99.90;;;;;;4981997;28;20034;-86
2022/10/17 04:06:43;;;;;;;1.48;0.90;;;11.80;99.90;;;;;;4993962;28;20043;-85
2022/10/17 04:09:09;;;;;;;1.83;0.80;;;11.80;99.90;;;;;;4976342;28;20039;-86
2022/10/17 04:11:35;;;;;;;1.17;0.80;;;11.80;99.90;;;;;;4992719;28;20073;-85
2022/10/17 04:14:01;;;;;;;1.30;0.82;;;11.80;99.90;;;;;;4993044;28;20487;-86
2022/10/17 04:16:27;;;;;;;1.20;0.90;;;12.20;99.90;;;;;;4976858;28;20034;-85
2022/10/17 04:18:54;;;;;;;1.02;0.80;;;11.80;99.90;;;;;;4993393;28;20073;-85
2022/10/17 04:21:20;;;;;;;1.17;0.80;;;11.80;99.90;;;;;;4992910;28;20053;-86
2022/10/17 04:23:46;;;;;;;1.90;1.10;;;11.80;99.90;;;;;;4975504;28;20115;-85
2022/10/17 04:26:12;;;;;;;1.48;1.10;;;11.80;99.90;;;;;;4968594;28;20475;-87
2022/10/17 04:28:37;;;;;;;1.85;1.00;;;11.80;99.90;;;;;;4992988;28;20101;-88
2022/10/17 04:31:06;;;;;;;2.65;1.20;;;11.80;99.90;;;;;;4975849;28;20049;-87
2022/10/17 04:33:32;;;;;;;2.08;1.35;;;11.80;99.90;;;;;;4992791;28;20130;-86
2022/10/17 04:35:59;;;;;;;1.65;1.20;;;11.80;99.90;;;;;;4975356;28;20081;-88
2022/10/17 04:38:25;;;;;;;1.15;0.80;;;12.60;99.90;;;;;;4992710;28;20034;-88
2022/10/17 04:40:51;;;;;;;1.33;0.90;;;11.80;99.90;;;;;;4979358;28;20046;-86
2022/10/17 04:43:17;;;;;;;1.45;1.05;;;12.00;99.90;;;;;;5003856;28;20121;-87
2022/10/17 04:45:42;;;;;;;1.50;1.15;;;12.80;99.90;;;;;;4996463;28;20061;-88
2022/10/17 04:48:08;;;;;;;1.48;1.08;;;11.90;99.90;;;;;;4978777;28;20061;-91
2022/10/17 04:50:34;;;;;;;2.38;1.20;;;11.90;99.90;;;;;;4996998;28;20059;-89
2022/10/17 04:53:00;;;;;;;2.15;1.10;;;12.80;99.90;;;;;;4996049;28;20537;-86
2022/10/17 04:55:25;;;;;;;3.08;0.93;;;12.20;99.90;;;;;;4996545;28;20375;-86
2022/10/17 04:57:51;;;;;;;1.40;0.90;;;12.00;99.90;;;;;;4978600;28;20046;-89
2022/10/17 05:00:17;;;;;;;2.35;0.90;;;12.00;99.90;;;;;;4979307;28;20054;-85
2022/10/17 05:02:42;;;;;;;2.17;1.08;;;12.00;99.90;;;;;;4996218;28;20056;-86
2022/10/17 05:05:08;;;;;;;1.35;0.80;;;12.00;99.90;;;;;;4978383;28;20048;-86
2022/10/17 05:07:34;;;;;;;1.35;0.80;;;12.10;99.90;;;;;;4995933;28;20098;-87
2022/10/17 05:10:00;;;;;;;2.38;0.77;;;12.10;99.90;;;;;;4980524;28;20117;-89
2022/10/17 05:12:25;;;;;;;2.03;0.90;;;12.40;99.90;;;;;;4998764;28;20125;-87
2022/10/17 05:14:51;;;;;;;1.67;0.73;;;12.20;99.90;;;;;;4999785;28;20078;-91
2022/10/17 05:17:17;;;;;;;2.10;0.70;;;12.60;99.90;;;;;;4995778;28;20046;-86
2022/10/17 05:19:42;;;;;;;0.98;0.70;;;12.40;99.90;;;;;;4996580;28;20101;-86
2022/10/17 05:22:08;;;;;;;2.28;1.20;;;12.50;99.90;;;;;;4995683;28;20399;-85
2022/10/17 05:24:34;;;;;;;2.95;0.98;;;12.50;99.90;;;;;;4995539;28;20130;-85
2022/10/17 05:26:59;;;;;;;1.52;0.82;;;12.40;99.90;;;;;;4996727;28;20077;-88
2022/10/17 05:29:25;;;;;;;2.05;0.90;;;12.40;99.90;;;;;;4996341;28;20050;-86
2022/10/17 05:31:51;;;;;;;1.33;0.85;;;12.40;99.90;;;;;;4995646;28;20372;-86
2022/10/17 05:34:16;;;;;;;1.80;1.15;;;12.60;99.90;;;;;;4995489;28;20129;-85
2022/10/17 05:36:42;;;;;;;1.65;0.70;;;13.00;99.90;;;;;;4994716;28;20462;-90
2022/10/17 05:39:08;;;;;;;1.42;0.90;;;12.50;99.90;;;;;;4994737;28;20051;-87
2022/10/17 05:41:34;;;;;;;1.90;1.10;;;12.50;99.90;;;;;;4998216;28;20041;-86
2022/10/17 05:43:59;;;;;;;4.18;1.42;;;12.50;99.90;;;;;;5000819;28;20398;-86
2022/10/17 05:46:25;;;;;;;1.13;0.70;;;12.50;99.90;;;;;;4995613;28;20106;-86
2022/10/17 05:48:52;;;;;;;2.00;0.95;;;13.10;99.90;;;;;;4994516;28;20046;-85
2022/10/17 05:51:17;;;;;;;1.58;0.90;;;12.50;99.90;;;;;;4995243;28;20042;-86
2022/10/17 05:53:43;;;;;;;2.65;1.10;;;12.50;99.90;;;;;;4995528;28;20391;-87
2022/10/17 05:56:11;;;;;;;1.73;1.13;;;12.50;99.90;;;;;;4999866;28;20201;-89
2022/10/17 05:58:40;;;;;;;1.50;0.90;;;12.50;99.90;;;;;;4993744;28;20042;-87
2022/10/17 06:01:06;;;;;;;1.95;1.00;;;12.60;99.90;;;;;;4994265;28;20050;-85
2022/10/17 06:03:32;;;;;;;1.02;0.80;;;12.60;99.90;;;;;;4993596;28;20085;-86
2022/10/17 06:06:10;;;;;;;1.33;0.98;;;12.50;99.90;;;;;;4994735;28;20057;-85
2022/10/17 06:08:36;;;;;;;1.60;1.00;;;13.40;99.90;;;;;;4994970;28;20046;-90
2022/10/17 06:11:02;;;;;;;1.35;0.80;;;12.60;99.90;;;;;;4995644;28;20061;-92
2022/10/17 06:13:29;;;;;;;1.33;0.80;;;12.60;99.90;;;;;;4995162;28;20042;-91
2022/10/17 06:15:54;;;;;;;1.33;0.90;;;13.20;99.90;;;;;;4977767;28;20042;-91
2022/10/17 06:18:20;;;;;;;4.43;1.00;;;12.60;99.90;;;;;;4977294;28;20462;-90
2022/10/17 06:20:47;;;;;;;1.92;1.00;;;12.60;99.90;;;;;;4977734;28;20058;-90
2022/10/17 06:23:13;;;;;;;1.55;1.00;;;12.60;99.90;;;;;;4998507;28;20121;-90
2022/10/17 06:25:38;;;;;;;2.10;1.20;;;12.60;99.90;;;;;;4995943;28;20122;-90
2022/10/17 06:28:04;;;;;;;3.67;1.40;;;13.30;99.90;;;;;;4999308;28;20049;-90
2022/10/17 06:30:30;;;;;;;2.17;0.90;;;12.70;99.90;;;;;;4998263;28;20092;-86
2022/10/17 06:32:59;;;;;;;2.35;1.30;;;12.70;99.90;;;;;;5001895;28;20046;-91
2022/10/17 06:35:27;;;;;;;2.28;1.15;;;12.70;99.90;;;;;;4977585;28;20049;-88
2022/10/17 06:37:53;;;;;;;1.75;1.00;;;12.80;99.90;;;;;;4995807;28;20046;-91
2022/10/17 06:40:19;;;;;;;2.17;1.05;;;12.80;99.90;;;;;;4994718;28;20038;-89
2022/10/17 06:42:44;;;;;;;2.50;2.03;;;12.70;99.90;;;;;;4978317;28;20038;-89
2022/10/17 06:45:10;;;;;;;1.63;0.90;;;13.30;99.90;;;;;;4977070;28;20045;-89
2022/10/17 06:47:36;;;;;;;2.47;1.13;;;12.80;99.90;;;;;;4995753;28;20576;-91
2022/10/17 06:50:02;;;;;;;2.45;1.52;;;12.80;99.90;;;;;;4995339;28;20038;-90
2022/10/17 06:52:28;;;;;;;2.78;0.90;;;12.80;99.90;;;;;;4981537;28;20509;-86
2022/10/17 06:54:53;;;;;;;1.42;1.20;;;12.90;99.90;;;;;;5007696;28;20065;-92
2022/10/17 06:57:19;;;;;;;2.75;1.20;;;12.90;99.90;;;;;;4977116;28;20057;-91
2022/10/17 06:59:45;;;;;;;1.83;1.00;;;12.90;99.90;;;;;;4981270;28;20383;-90
2022/10/17 07:02:10;;;;;;;1.77;1.10;;;13.40;99.90;;;;;;4993080;28;20125;-93
2022/10/17 07:04:36;;;;;;;1.33;0.70;;;13.40;99.90;;;;;;4994409;28;20052;-85
2022/10/17 07:07:03;;;;;;;1.60;0.80;;;12.10;99.90;;;;;;4977440;28;20053;-91
2022/10/17 07:09:29;;;;;;;1.95;0.85;;;13.00;99.90;;;;;;4994436;28;20045;-93
2022/10/17 07:11:56;;;;;;;1.33;0.90;;;13.00;99.90;;;;;;4977997;28;20050;-92
2022/10/17 07:14:22;;;;;;;2.22;0.95;;;13.30;99.90;;;;;;4977280;28;20046;-90
2022/10/17 07:16:47;;;;;;;2.15;1.02;;;13.10;99.90;;;;;;4977443;28;20050;-94
2022/10/17 07:19:13;;;;;;;2.38;0.90;;;13.20;99.90;;;;;;4996267;28;20089;-90
2022/10/17 07:21:39;;;;;;;1.90;0.82;;;13.40;99.90;;;;;;4976501;28;20046;-92
2022/10/17 07:24:06;;;;;;;1.48;1.00;;;13.20;99.90;;;;;;4985246;28;20049;-91
2022/10/17 07:26:32;;;;;;;1.55;0.95;;;13.30;99.90;;;;;;4976590;28;20050;-89
2022/10/17 07:28:58;;;;;;;2.17;1.00;;;13.30;99.90;;;;;;4976789;28;20050;-92
2022/10/17 07:31:24;;;;;;;1.95;1.00;;;13.40;99.90;;;;;;4993642;28;20372;-92
2022/10/17 07:33:50;;;;;;;1.63;0.90;;;13.40;99.90;;;;;;4976587;28;20097;-92
2022/10/17 07:36:16;;;;;;;1.33;0.80;;;13.60;99.90;;;;;;4996485;28;20549;-89
2022/10/17 07:38:42;;;;;;;2.28;1.42;;;13.60;99.90;;;;;;4993436;28;20050;-88
2022/10/17 07:41:10;;;;;;;1.50;0.93;;;13.70;99.90;;;;;;4960493;28;20085;-93
2022/10/17 07:43:36;;;;;;;1.67;0.90;;;13.80;99.90;;;;;;4975948;28;20050;-91
2022/10/17 07:46:04;;;;;;;1.90;1.00;;;13.80;99.90;;;;;;4993064;28;20394;-90
2022/10/17 07:48:29;;;;;;;1.83;1.00;;;13.90;99.90;;;;;;4996502;28;20069;-87
2022/10/17 07:50:55;;;;;;;1.75;0.80;;;13.90;99.90;;;;;;4995767;28;20072;-84
2022/10/17 07:53:21;;;;;;;1.42;0.70;;;14.00;99.90;;;;;;4978290;28;20092;-86
2022/10/17 07:55:48;;;;;;;1.73;0.93;;;14.20;99.90;;;;;;4975363;28;20043;-89
2022/10/17 07:58:15;;;;;;;1.67;0.80;;;14.00;99.90;;;;;;4997001;28;20034;-86
2022/10/17 08:00:40;;;;;;;2.13;1.10;;;14.10;99.90;;;;;;4964194;28;20057;-87
2022/10/17 08:03:07;;;;;;;2.08;1.08;;;14.20;99.90;;;;;;4983354;28;20038;-87
2022/10/17 08:05:33;;;;;;;1.50;1.00;;;14.30;99.90;;;;;;4977898;28;20042;-90
2022/10/17 08:07:59;;;;;;;2.47;1.10;;;14.50;99.90;;;;;;4979405;28;20046;-87
2022/10/17 08:10:27;;;;;;;1.30;0.98;;;14.50;99.90;;;;;;4980381;28;20043;-91
2022/10/17 08:12:57;;;;;;;4.15;1.65;;;14.60;99.90;;;;;;4999249;28;20406;-88
2022/10/17 08:15:24;;;;;;;3.10;1.52;;;14.70;99.90;;;;;;4998621;28;20058;-88
2022/10/17 08:17:51;;;;;;;2.63;1.40;;;15.10;99.90;;;;;;5001514;28;20049;-88
2022/10/17 08:20:17;;;;;;;4.18;2.88;;;15.00;99.90;;;;;;4996800;28;20562;-88
2022/10/17 08:22:42;;;;;;;5.88;2.80;;;15.10;99.90;;;;;;5001678;28;20133;-87
2022/10/17 08:25:08;;;;;;;3.67;2.20;;;15.10;99.90;;;;;;4996423;28;20398;-88
2022/10/17 08:27:34;;;;;;;5.53;2.63;;;15.60;99.90;;;;;;4997437;28;20089;-87
2022/10/17 08:30:01;;;;;;;4.32;2.95;;;15.50;99.90;;;;;;4995446;28;20046;-87
2022/10/17 08:32:28;;;;;;;5.07;3.17;;;15.50;99.90;;;;;;4998574;28;20548;-91
2022/10/17 08:34:55;;;;;;;6.28;2.53;;;15.60;99.90;;;;;;5000012;28;20042;-93
2022/10/17 08:37:21;;;;;;;6.63;3.58;;;15.70;99.90;;;;;;4996858;28;20050;-91
2022/10/17 08:39:47;;;;;;;6.78;3.13;;;15.80;99.90;;;;;;4980105;28;20042;-90
2022/10/17 08:42:43;;;;;;;4.97;2.70;;;15.80;99.90;;;;;;4996707;28;20406;-91
2022/10/17 08:45:21;;;;;;;;;;;15.90;99.90;;;;;;4996367;28;20058;-91
2022/10/17 08:47:57;;;;;;;6.90;3.53;;;15.80;99.90;;;;;;4996788;28;19947;-90
2022/10/17 08:50:35;;;;;;;3.72;2.42;;;16.00;99.90;;;;;;5002287;28;20100;-93
2022/10/17 08:53:50;;;;;;;8.38;3.40;;;16.10;99.90;;;;;;5002133;28;20050;-87
2022/10/17 08:56:33;;;;;;;5.75;3.53;;;16.20;99.90;;;;;;5002240;28;20077;-92
2022/10/17 08:59:01;;;;;;;5.05;3.30;;;16.30;99.90;;;;;;4996503;28;20054;-89
2022/10/17 09:02:01;;;;;;;4.35;3.10;;;16.40;99.90;;;;;;4996281;28;20034;-90
2022/10/17 09:05:08;;;;;;;5.80;3.53;;;16.40;99.90;;;;;;4994850;28;20087;-90
2022/10/17 09:07:58;;;;;;;7.13;3.60;;;16.60;99.90;;;;;;4939079;28;20069;-89
2022/10/17 09:10:51;;;;;;;4.35;2.92;;;16.70;99.90;;;;;;4952992;28;20046;-91
2022/10/17 09:13:38;;;;;;;6.18;3.72;;;16.70;99.90;;;;;;4946404;28;20050;-90
2022/10/17 09:16:30;;;;;;;5.45;2.60;;;16.80;99.90;;;;;;4968075;28;20055;-91
2022/10/17 09:19:03;;;;;;;3.95;2.50;;;16.80;99.90;;;;;;4941240;29;20062;-89
2022/10/17 09:21:38;;;;;;;6.22;2.80;;;16.80;99.90;;;;;;4953951;28;20051;-90
2022/10/17 09:24:10;;;;;;;4.82;2.20;;;16.90;99.90;;;;;;4962588;28;20043;-91
2022/10/17 09:26:39;;;;;;;6.38;3.08;;;16.90;99.90;;;;;;4961754;28;20439;-91
2022/10/17 09:29:21;;;;;;;4.60;3.03;;;16.90;99.90;;;;;;4940270;28;20054;-89
2022/10/17 09:32:02;;;;;;;5.20;3.30;;;17.00;99.90;;;;;;4940059;28;20043;-93
2022/10/17 09:34:30;;;;;;;5.35;3.17;;;17.10;99.90;;;;;;4963326;28;20059;-88
2022/10/17 09:36:58;;;;;;;5.65;3.53;;;17.10;99.90;;;;;;4962064;28;20068;-90
2022/10/17 09:39:30;;;;;;;8.85;3.75;;;17.20;99.90;;;;;;4961588;28;20047;-89
2022/10/17 09:42:00;;;;;;;7.63;3.50;;;17.20;99.90;;;;;;4987891;28;20068;-91
2022/10/17 09:44:36;;;;;;;10.13;3.70;;;17.10;99.90;;;;;;5010491;28;20418;-90
2022/10/17 09:47:25;;;;;;;11.43;4.80;;;17.20;99.90;;;;;;5017778;28;20054;-90
2022/10/17 09:49:51;;;;;;;8.60;3.70;;;17.20;99.90;;;;;;5011843;28;20384;-94
2022/10/17 09:52:27;;;;;;;6.07;3.75;;;17.10;99.90;;;;;;4997869;28;20117;-88
2022/10/17 10:09:25;;;;;;;4.38;2.85;;;17.10;99.90;;;;;;5003151;28;20557;-90
2022/10/17 10:24:00;;;;;;;5.50;3.38;;;16.80;99.90;;;;;;5004074;28;20041;-91
2022/10/17 10:26:41;;;;;;;3.33;1.85;;;16.90;99.90;;;;;;4996502;28;20042;-90
2022/10/17 10:29:25;;;;;;;5.00;2.95;;;16.70;99.90;;;;;;4977285;28;20048;-89
2022/10/17 10:31:52;;;;;;;3.03;2.08;;;16.70;99.90;;;;;;4997009;28;20502;-93
2022/10/17 10:34:27;;;;;;;5.32;1.95;;;16.70;99.90;;;;;;4994937;28;20046;-88
2022/10/17 10:36:56;;;;;;;;;;;16.60;99.90;;;;;;4993964;28;20050;-91
2022/10/17 10:39:32;;;;;;;3.78;2.47;;;16.60;99.90;;;;;;4993514;28;19921;-90
2022/10/17 10:42:00;;;;;;;2.70;1.73;;;16.50;99.90;;;;;;5010159;28;20471;-91
2022/10/17 10:44:29;;;;;;;3.13;1.65;;;16.60;99.90;;;;;;4996806;28;20046;-91
2022/10/17 10:47:08;;;;;;;3.03;1.88;;;16.60;99.90;;;;;;4999447;28;20042;-94
2022/10/17 10:49:33;;;;;;;2.97;1.40;;;16.60;99.90;;;;;;4993973;28;20054;-91
2022/10/17 10:52:02;;;;;;;3.05;1.98;;;16.60;99.90;;;;;;4994585;28;20054;-90
2022/10/17 10:54:36;;;;;;;3.60;2.08;;;16.50;99.90;;;;;;4994875;28;20038;-91
2022/10/17 10:57:06;;;;;;;1.70;1.00;;;16.50;99.90;;;;;;4993234;28;20050;-90
2022/10/17 11:00:01;;;;;;;2.05;1.45;;;16.50;99.90;;;;;;4993536;28;20046;-92
2022/10/17 11:02:34;;;;;;;2.45;1.50;;;16.50;99.90;;;;;;4981657;28;20054;-90
2022/10/17 11:05:09;;;;;;;2.10;1.17;;;16.50;99.90;;;;;;4958763;28;20051;-91
2022/10/17 11:07:38;;;;;;;5.05;1.70;;;16.50;99.90;;;;;;4957075;28;21862;-91
2022/10/17 11:10:47;;;;;;;2.42;1.20;;;16.50;99.90;;;;;;4970731;28;20057;-89
2022/10/17 11:13:27;;;;;;;2.90;1.55;;;16.50;99.90;;;;;;4887651;29;20041;-87
2022/10/17 11:16:17;;;;;;;2.90;1.30;;;16.50;99.90;;;;;;4886740;29;20143;-92
2022/10/17 11:19:14;;;;;;;3.65;1.55;;;16.50;99.90;;;;;;4899976;29;20527;-92
2022/10/17 11:21:51;;;;;;;2.95;1.15;;;16.60;99.90;;;;;;4834941;29;20089;-88
2022/10/17 11:24:56;;;;;;;2.50;1.30;;;16.60;99.90;;;;;;4828798;29;20381;-90
2022/10/17 11:27:23;;;;;;;3.78;1.25;;;16.60;99.90;;;;;;4831877;29;20061;-91
2022/10/17 11:29:49;;;;;;;3.20;1.98;;;16.70;99.90;;;;;;4836029;29;20054;-89
2022/10/17 11:32:40;;;;;;;3.83;2.05;;;16.70;99.90;;;;;;4830659;29;20052;-88
2022/10/17 11:35:29;;;;;;;4.10;1.75;;;16.70;99.90;;;;;;4827219;29;20086;-87
2022/10/17 11:38:03;;;;;;;4.82;1.63;;;16.60;99.90;;;;;;4850057;29;20207;-87
2022/10/17 11:40:43;;;;;;;5.00;2.70;;;16.70;99.90;;;;;;4846373;29;20074;-90
2022/10/17 11:43:19;;;;;;;3.15;1.60;;;16.70;99.90;;;;;;4865397;29;20790;-87
2022/10/17 11:45:54;;;;;;;6.05;2.00;;;16.70;99.90;;;;;;4865658;29;20060;-90
2022/10/17 11:48:57;;;;;;;3.25;2.00;;;16.70;99.90;;;;;;4894154;28;20046;-91
2022/10/17 11:51:23;;;;;;;2.85;1.67;;;16.70;99.90;;;;;;4955896;28;20078;-86
2022/10/17 11:54:04;;;;;;;5.00;2.10;;;16.70;99.90;;;;;;4942716;28;20087;-85
2022/10/17 11:57:05;;;;;;;4.25;2.13;;;16.70;99.90;;;;;;4942049;29;20051;-87
2022/10/17 12:00:02;;;;;;;6.80;3.38;;;16.70;99.90;;;;;;4983384;28;20510;-86
2022/10/17 12:02:40;;;;;;;6.20;2.17;;;16.70;99.90;;;;;;4996248;28;20390;-88
2022/10/17 12:05:20;;;;;;;6.50;2.60;;;16.70;99.90;;;;;;5000176;28;20505;-88
2022/10/17 12:08:01;;;;;;;3.53;2.10;;;16.70;99.90;;;;;;4991481;28;20097;-87
2022/10/17 12:10:44;;;;;;;6.25;2.08;;;16.70;99.90;;;;;;4975521;28;20551;-87
2022/10/17 12:13:30;;;;;;;3.78;2.28;;;16.70;99.90;;;;;;4992813;28;20475;-87
2022/10/17 12:15:56;;;;;;;;;;;16.80;99.90;;;;;;4959513;28;20138;-87
2022/10/17 12:18:28;;;;;;;4.38;2.05;;;16.90;99.90;;;;;;4959015;28;19940;-87
2022/10/17 12:20:58;;;;;;;4.55;2.90;;;16.90;99.90;;;;;;4979570;28;20055;-87
2022/10/17 12:23:31;;;;;;;2.53;1.63;;;16.90;99.90;;;;;;4972054;28;20109;-89
2022/10/17 12:26:43;;;;;;;3.03;1.90;;;16.90;99.90;;;;;;4983039;28;20047;-93
2022/10/17 12:29:27;;;;;;;2.83;1.45;;;17.00;99.90;;;;;;4983148;28;20039;-89
2022/10/17 12:31:53;;;;;;;2.83;1.50;;;17.00;99.90;;;;;;4969365;28;20070;-90
2022/10/17 12:34:23;;;;;;;2.85;1.38;;;16.90;99.90;;;;;;4975587;28;20051;-89
2022/10/17 12:36:48;;;;;;;2.03;1.40;;;17.00;99.90;;;;;;4964022;28;20047;-88
2022/10/17 12:39:14;;;;;;;5.47;2.22;;;16.90;99.90;;;;;;4961871;28;20050;-88
2022/10/17 12:41:41;;;;;;;2.30;1.55;;;17.00;99.90;;;;;;4980722;28;20061;-88
2022/10/17 12:44:12;;;;;;;4.38;1.40;;;17.00;99.90;;;;;;4979328;28;20043;-93
2022/10/17 12:46:51;;;;;;;2.05;1.40;;;17.00;99.90;;;;;;4970858;28;20062;-86
2022/10/17 12:49:35;;;;;;;3.15;1.23;;;17.00;99.90;;;;;;4991448;28;20542;-88
2022/10/17 12:52:16;;;;;;;1.85;0.98;;;17.00;99.90;;;;;;4991642;28;20106;-89
2022/10/17 12:54:51;;;;;;;2.83;1.20;;;17.00;99.90;;;;;;5010215;28;20077;-84
2022/10/17 12:57:28;;;;;;;3.25;1.27;;;17.00;99.90;;;;;;5007343;28;20058;-93
2022/10/17 12:59:54;;;;;;;2.13;1.52;;;17.00;99.90;;;;;;4994403;28;20058;-87
2022/10/17 13:02:25;;;;;;;3.08;1.60;;;17.00;99.90;;;;;;5000300;28;20406;-91
2022/10/17 13:05:02;;;;;;;2.53;1.25;;;17.00;99.90;;;;;;4996296;28;20046;-88
2022/10/17 13:07:28;;;;;;;2.65;1.30;;;16.90;99.90;;;;;;5004568;28;20042;-92
2022/10/17 13:09:54;;;;;;;1.90;1.10;;;16.90;99.90;;;;;;4993263;28;20045;-90
2022/10/17 13:12:25;;;;;;;1.55;1.20;;;16.90;99.90;;;;;;4998995;28;20515;-89
2022/10/17 13:14:53;;;;;;;3.13;1.20;;;16.90;99.90;;;;;;5008443;28;20050;-89
2022/10/17 13:17:26;;;;;;;1.70;1.02;;;16.80;99.90;;;;;;4996264;28;20050;-88
2022/10/17 13:19:53;;;;;;;1.52;0.95;;;16.90;99.90;;;;;;4996132;28;20130;-88
2022/10/17 13:22:22;;;;;;;7.03;1.75;;;16.80;99.90;;;;;;5001638;28;20058;-87
2022/10/17 13:25:06;;;;;;;3.22;1.50;;;16.80;99.90;;;;;;4995059;28;20043;-88
2022/10/17 13:27:34;;;;;;;2.28;1.00;;;16.70;99.90;;;;;;4995472;28;20459;-89
2022/10/17 13:30:19;;;;;;;3.45;1.17;;;16.80;99.90;;;;;;4995979;28;20095;-86
2022/10/17 13:32:47;;;;;;;2.10;1.10;;;16.90;99.90;;;;;;4995604;28;20502;-87
2022/10/17 13:35:25;;;;;;;2.70;0.90;;;16.70;99.90;;;;;;4994982;28;20045;-88
2022/10/17 13:38:00;;;;;;;5.55;1.15;;;16.70;99.90;;;;;;5001396;28;20069;-86
2022/10/17 13:40:30;;;;;;;3.50;1.10;;;16.70;99.90;;;;;;4994653;28;20050;-86
2022/10/17 13:42:57;;;;;;;1.45;0.85;;;16.60;99.90;;;;;;4995324;28;20050;-89
2022/10/17 13:45:33;;;;;;;2.55;0.90;;;16.60;99.90;;;;;;4995627;28;20121;-87